sensor_id;sensor_type;location;lat;lon;timestamp;temperature;humidity
75621;DHT22;64574;48.506;-2.750;2023-03-01T00:02:20;3.60;69.60
75621;DHT22;64574;48.506;-2.750;2023-03-01T00:04:46;3.60;69.70
75621;DHT22;64574;48.506;-2.750;2023-03-01T00:07:12;3.70;69.40
75621;DHT22;64574;48.506;-2.750;2023-03-01T00:09:37;3.70;69.80
75621;DHT22;64574;48.506;-2.750;2023-03-01T00:12:03;3.60;69.70
75621;DHT22;64574;48.506;-2.750;2023-03-01T00:14:29;3.60;70.00
75621;DHT22;64574;48.506;-2.750;2023-03-01T00:16:55;3.70;69.60
75621;DHT22;64574;48.506;-2.750;2023-03-01T00:19:21;3.70;69.50
75621;DHT22;64574;48.506;-2.750;2023-03-01T00:21:47;3.60;69.50
75621;DHT22;64574;48.506;-2.750;2023-03-01T00:24:13;3.60;69.60
75621;DHT22;64574;48.506;-2.750;2023-03-01T00:26:39;3.60;69.40
75621;DHT22;64574;48.506;-2.750;2023-03-01T00:29:05;3.70;69.40
75621;DHT22;64574;48.506;-2.750;2023-03-01T00:31:32;3.70;69.40
75621;DHT22;64574;48.506;-2.750;2023-03-01T00:34:00;3.60;69.00
75621;DHT22;64574;48.506;-2.750;2023-03-01T00:36:28;3.60;69.20
75621;DHT22;64574;48.506;-2.750;2023-03-01T00:38:55;3.50;69.20
75621;DHT22;64574;48.506;-2.750;2023-03-01T00:41:20;3.60;69.00
75621;DHT22;64574;48.506;-2.750;2023-03-01T00:43:49;3.60;68.60
75621;DHT22;64574;48.506;-2.750;2023-03-01T00:46:17;3.50;68.70
75621;DHT22;64574;48.506;-2.750;2023-03-01T00:48:44;3.50;68.60
75621;DHT22;64574;48.506;-2.750;2023-03-01T00:51:18;3.60;68.60
75621;DHT22;64574;48.506;-2.750;2023-03-01T00:53:45;3.50;67.80
75621;DHT22;64574;48.506;-2.750;2023-03-01T00:56:12;3.50;68.10
75621;DHT22;64574;48.506;-2.750;2023-03-01T00:58:38;3.50;67.80
75621;DHT22;64574;48.506;-2.750;2023-03-01T01:01:12;3.50;67.90
75621;DHT22;64574;48.506;-2.750;2023-03-01T01:06:19;3.50;66.90
75621;DHT22;64574;48.506;-2.750;2023-03-01T01:08:46;3.50;66.90
75621;DHT22;64574;48.506;-2.750;2023-03-01T01:11:12;3.50;66.80
75621;DHT22;64574;48.506;-2.750;2023-03-01T01:13:39;3.50;66.50
75621;DHT22;64574;48.506;-2.750;2023-03-01T01:16:05;3.50;66.80
75621;DHT22;64574;48.506;-2.750;2023-03-01T01:18:31;3.50;66.80
75621;DHT22;64574;48.506;-2.750;2023-03-01T01:20:56;3.50;66.70
75621;DHT22;64574;48.506;-2.750;2023-03-01T01:23:22;3.50;66.50
75621;DHT22;64574;48.506;-2.750;2023-03-01T01:25:47;3.30;65.80
75621;DHT22;64574;48.506;-2.750;2023-03-01T01:28:13;3.30;65.90
75621;DHT22;64574;48.506;-2.750;2023-03-01T01:30:38;3.10;65.50
75621;DHT22;64574;48.506;-2.750;2023-03-01T01:33:04;3.10;65.50
75621;DHT22;64574;48.506;-2.750;2023-03-01T01:35:30;3.10;64.80
75621;DHT22;64574;48.506;-2.750;2023-03-01T01:37:55;3.30;64.30
75621;DHT22;64574;48.506;-2.750;2023-03-01T01:40:21;3.10;63.60
75621;DHT22;64574;48.506;-2.750;2023-03-01T01:42:46;3.00;63.80
75621;DHT22;64574;48.506;-2.750;2023-03-01T01:47:55;3.00;62.90
75621;DHT22;64574;48.506;-2.750;2023-03-01T01:50:22;3.00;62.80
75621;DHT22;64574;48.506;-2.750;2023-03-01T01:52:50;3.00;62.40
75621;DHT22;64574;48.506;-2.750;2023-03-01T01:55:25;2.90;62.60
75621;DHT22;64574;48.506;-2.750;2023-03-01T01:57:56;3.00;62.30
75621;DHT22;64574;48.506;-2.750;2023-03-01T02:00:25;2.90;62.60
75621;DHT22;64574;48.506;-2.750;2023-03-01T02:03:11;3.00;62.50
75621;DHT22;64574;48.506;-2.750;2023-03-01T02:08:16;3.00;62.40
75621;DHT22;64574;48.506;-2.750;2023-03-01T02:10:42;3.00;62.30
75621;DHT22;64574;48.506;-2.750;2023-03-01T02:13:09;2.90;62.50
75621;DHT22;64574;48.506;-2.750;2023-03-01T02:15:37;3.00;62.70
75621;DHT22;64574;48.506;-2.750;2023-03-01T02:18:04;3.00;62.90
75621;DHT22;64574;48.506;-2.750;2023-03-01T02:20:34;2.90;62.90
75621;DHT22;64574;48.506;-2.750;2023-03-01T02:23:01;2.90;62.70
75621;DHT22;64574;48.506;-2.750;2023-03-01T02:30:40;2.90;62.80
75621;DHT22;64574;48.506;-2.750;2023-03-01T02:33:26;2.80;63.00
75621;DHT22;64574;48.506;-2.750;2023-03-01T02:35:54;2.80;63.20
75621;DHT22;64574;48.506;-2.750;2023-03-01T02:38:21;2.80;63.40
75621;DHT22;64574;48.506;-2.750;2023-03-01T02:40:49;2.90;63.20
75621;DHT22;64574;48.506;-2.750;2023-03-01T02:43:18;2.80;63.40
75621;DHT22;64574;48.506;-2.750;2023-03-01T02:45:49;2.70;63.60
75621;DHT22;64574;48.506;-2.750;2023-03-01T02:48:15;2.60;64.00
75621;DHT22;64574;48.506;-2.750;2023-03-01T02:50:46;2.50;63.90
75621;DHT22;64574;48.506;-2.750;2023-03-01T02:53:28;2.50;64.20
75621;DHT22;64574;48.506;-2.750;2023-03-01T02:56:00;2.60;64.10
75621;DHT22;64574;48.506;-2.750;2023-03-01T02:58:25;2.60;64.00
75621;DHT22;64574;48.506;-2.750;2023-03-01T03:00:51;2.70;64.10
75621;DHT22;64574;48.506;-2.750;2023-03-01T03:03:20;2.60;64.00
75621;DHT22;64574;48.506;-2.750;2023-03-01T03:05:45;2.70;64.00
75621;DHT22;64574;48.506;-2.750;2023-03-01T03:08:11;2.50;64.30
75621;DHT22;64574;48.506;-2.750;2023-03-01T03:10:39;2.50;64.30
75621;DHT22;64574;48.506;-2.750;2023-03-01T03:13:07;2.60;64.10
75621;DHT22;64574;48.506;-2.750;2023-03-01T03:15:34;2.50;64.20
75621;DHT22;64574;48.506;-2.750;2023-03-01T03:18:07;2.50;64.60
75621;DHT22;64574;48.506;-2.750;2023-03-01T03:20:34;2.60;64.30
75621;DHT22;64574;48.506;-2.750;2023-03-01T03:22:59;2.70;64.30
75621;DHT22;64574;48.506;-2.750;2023-03-01T03:25:27;2.70;64.10
75621;DHT22;64574;48.506;-2.750;2023-03-01T03:27:53;2.60;64.10
75621;DHT22;64574;48.506;-2.750;2023-03-01T03:30:30;2.50;64.40
75621;DHT22;64574;48.506;-2.750;2023-03-01T03:32:57;2.50;64.10
75621;DHT22;64574;48.506;-2.750;2023-03-01T03:35:32;2.50;64.40
75621;DHT22;64574;48.506;-2.750;2023-03-01T03:37:59;2.50;64.00
75621;DHT22;64574;48.506;-2.750;2023-03-01T03:40:36;2.50;64.30
75621;DHT22;64574;48.506;-2.750;2023-03-01T03:43:03;2.50;63.70
75621;DHT22;64574;48.506;-2.750;2023-03-01T03:45:30;2.40;63.90
75621;DHT22;64574;48.506;-2.750;2023-03-01T03:47:59;2.50;63.50
75621;DHT22;64574;48.506;-2.750;2023-03-01T03:50:25;2.50;62.70
75621;DHT22;64574;48.506;-2.750;2023-03-01T03:52:50;2.50;63.00
75621;DHT22;64574;48.506;-2.750;2023-03-01T03:55:16;2.50;62.60
75621;DHT22;64574;48.506;-2.750;2023-03-01T03:57:46;2.50;62.40
75621;DHT22;64574;48.506;-2.750;2023-03-01T04:00:18;2.50;62.20
75621;DHT22;64574;48.506;-2.750;2023-03-01T04:02:45;2.50;61.40
75621;DHT22;64574;48.506;-2.750;2023-03-01T04:05:13;2.50;61.40
75621;DHT22;64574;48.506;-2.750;2023-03-01T04:07:40;2.50;61.30
75621;DHT22;64574;48.506;-2.750;2023-03-01T04:10:12;2.50;61.00
75621;DHT22;64574;48.506;-2.750;2023-03-01T04:12:38;2.50;60.90
75621;DHT22;64574;48.506;-2.750;2023-03-01T04:15:06;2.50;60.90
75621;DHT22;64574;48.506;-2.750;2023-03-01T04:17:42;2.50;60.80
75621;DHT22;64574;48.506;-2.750;2023-03-01T04:20:10;2.50;60.50
75621;DHT22;64574;48.506;-2.750;2023-03-01T04:22:39;2.50;60.10
75621;DHT22;64574;48.506;-2.750;2023-03-01T04:25:04;2.50;60.50
75621;DHT22;64574;48.506;-2.750;2023-03-01T04:27:33;2.50;60.50
75621;DHT22;64574;48.506;-2.750;2023-03-01T04:29:59;2.50;60.60
75621;DHT22;64574;48.506;-2.750;2023-03-01T04:32:25;2.50;60.70
75621;DHT22;64574;48.506;-2.750;2023-03-01T04:34:51;2.60;60.70
75621;DHT22;64574;48.506;-2.750;2023-03-01T04:37:16;2.60;60.50
75621;DHT22;64574;48.506;-2.750;2023-03-01T04:39:42;2.50;61.00
75621;DHT22;64574;48.506;-2.750;2023-03-01T04:42:14;2.50;61.00
75621;DHT22;64574;48.506;-2.750;2023-03-01T04:44:40;2.50;61.00
75621;DHT22;64574;48.506;-2.750;2023-03-01T04:47:06;2.50;60.90
75621;DHT22;64574;48.506;-2.750;2023-03-01T04:49:31;2.50;61.20
75621;DHT22;64574;48.506;-2.750;2023-03-01T04:51:57;2.50;61.20
75621;DHT22;64574;48.506;-2.750;2023-03-01T04:54:30;2.40;61.50
75621;DHT22;64574;48.506;-2.750;2023-03-01T04:56:56;2.50;61.80
75621;DHT22;64574;48.506;-2.750;2023-03-01T04:59:22;2.50;61.80
75621;DHT22;64574;48.506;-2.750;2023-03-01T05:01:48;2.30;62.20
75621;DHT22;64574;48.506;-2.750;2023-03-01T05:04:14;2.30;62.50
75621;DHT22;64574;48.506;-2.750;2023-03-01T05:06:40;2.40;62.60
75621;DHT22;64574;48.506;-2.750;2023-03-01T05:09:06;2.40;62.60
75621;DHT22;64574;48.506;-2.750;2023-03-01T05:11:32;2.40;62.70
75621;DHT22;64574;48.506;-2.750;2023-03-01T05:14:08;2.40;62.70
75621;DHT22;64574;48.506;-2.750;2023-03-01T05:16:35;2.40;63.20
75621;DHT22;64574;48.506;-2.750;2023-03-01T05:19:02;2.40;63.20
75621;DHT22;64574;48.506;-2.750;2023-03-01T05:21:39;2.40;63.20
75621;DHT22;64574;48.506;-2.750;2023-03-01T05:24:25;2.40;63.30
75621;DHT22;64574;48.506;-2.750;2023-03-01T05:26:51;2.30;63.00
75621;DHT22;64574;48.506;-2.750;2023-03-01T05:29:20;2.40;62.60
75621;DHT22;64574;48.506;-2.750;2023-03-01T05:31:52;2.50;62.30
75621;DHT22;64574;48.506;-2.750;2023-03-01T05:34:19;2.40;62.30
75621;DHT22;64574;48.506;-2.750;2023-03-01T05:36:48;2.50;62.00
75621;DHT22;64574;48.506;-2.750;2023-03-01T05:39:13;2.50;62.10
75621;DHT22;64574;48.506;-2.750;2023-03-01T05:41:39;2.40;61.90
75621;DHT22;64574;48.506;-2.750;2023-03-01T05:44:06;2.50;61.50
75621;DHT22;64574;48.506;-2.750;2023-03-01T05:46:32;2.50;61.30
75621;DHT22;64574;48.506;-2.750;2023-03-01T05:48:58;2.50;61.20
75621;DHT22;64574;48.506;-2.750;2023-03-01T05:51:23;2.50;61.20
75621;DHT22;64574;48.506;-2.750;2023-03-01T05:53:49;2.40;60.70
75621;DHT22;64574;48.506;-2.750;2023-03-01T05:56:15;2.40;60.90
75621;DHT22;64574;48.506;-2.750;2023-03-01T05:58:40;2.30;60.40
75621;DHT22;64574;48.506;-2.750;2023-03-01T06:01:11;2.40;60.20
75621;DHT22;64574;48.506;-2.750;2023-03-01T06:03:37;2.50;60.10
75621;DHT22;64574;48.506;-2.750;2023-03-01T06:06:03;2.50;59.70
75621;DHT22;64574;48.506;-2.750;2023-03-01T06:08:29;2.50;59.70
75621;DHT22;64574;48.506;-2.750;2023-03-01T06:10:54;2.40;59.70
75621;DHT22;64574;48.506;-2.750;2023-03-01T06:13:20;2.50;59.40
75621;DHT22;64574;48.506;-2.750;2023-03-01T06:15:45;2.50;59.20
75621;DHT22;64574;48.506;-2.750;2023-03-01T06:18:11;2.50;59.20
75621;DHT22;64574;48.506;-2.750;2023-03-01T06:20:36;2.40;59.40
75621;DHT22;64574;48.506;-2.750;2023-03-01T06:23:02;2.40;59.00
75621;DHT22;64574;48.506;-2.750;2023-03-01T06:25:28;2.50;58.90
75621;DHT22;64574;48.506;-2.750;2023-03-01T06:27:54;2.50;59.00
75621;DHT22;64574;48.506;-2.750;2023-03-01T06:30:21;2.40;58.70
75621;DHT22;64574;48.506;-2.750;2023-03-01T06:32:47;2.40;58.90
75621;DHT22;64574;48.506;-2.750;2023-03-01T06:35:15;2.40;59.00
75621;DHT22;64574;48.506;-2.750;2023-03-01T06:37:43;2.40;58.90
75621;DHT22;64574;48.506;-2.750;2023-03-01T06:40:10;2.40;59.00
75621;DHT22;64574;48.506;-2.750;2023-03-01T06:42:38;2.40;59.00
75621;DHT22;64574;48.506;-2.750;2023-03-01T06:45:05;2.40;59.10
75621;DHT22;64574;48.506;-2.750;2023-03-01T06:47:32;2.50;59.10
75621;DHT22;64574;48.506;-2.750;2023-03-01T06:50:02;2.50;58.90
75621;DHT22;64574;48.506;-2.750;2023-03-01T06:52:28;2.50;59.10
75621;DHT22;64574;48.506;-2.750;2023-03-01T06:54:54;2.50;59.10
75621;DHT22;64574;48.506;-2.750;2023-03-01T06:57:20;2.50;59.00
75621;DHT22;64574;48.506;-2.750;2023-03-01T06:59:47;2.50;59.30
75621;DHT22;64574;48.506;-2.750;2023-03-01T07:02:13;2.40;59.40
75621;DHT22;64574;48.506;-2.750;2023-03-01T07:04:40;2.40;59.60
75621;DHT22;64574;48.506;-2.750;2023-03-01T07:07:06;2.40;59.60
75621;DHT22;64574;48.506;-2.750;2023-03-01T07:09:32;2.40;59.70
75621;DHT22;64574;48.506;-2.750;2023-03-01T07:11:58;2.40;59.60
75621;DHT22;64574;48.506;-2.750;2023-03-01T07:14:24;2.40;59.60
75621;DHT22;64574;48.506;-2.750;2023-03-01T07:16:51;2.50;59.60
75621;DHT22;64574;48.506;-2.750;2023-03-01T07:19:17;2.50;59.60
75621;DHT22;64574;48.506;-2.750;2023-03-01T07:21:42;2.50;59.60
75621;DHT22;64574;48.506;-2.750;2023-03-01T07:24:09;2.50;59.60
75621;DHT22;64574;48.506;-2.750;2023-03-01T07:26:35;2.50;59.70
75621;DHT22;64574;48.506;-2.750;2023-03-01T07:29:02;2.60;59.80
75621;DHT22;64574;48.506;-2.750;2023-03-01T07:31:28;2.60;59.80
75621;DHT22;64574;48.506;-2.750;2023-03-01T07:33:54;2.50;60.10
75621;DHT22;64574;48.506;-2.750;2023-03-01T07:36:20;2.60;60.20
75621;DHT22;64574;48.506;-2.750;2023-03-01T07:38:46;2.50;60.70
75621;DHT22;64574;48.506;-2.750;2023-03-01T07:41:12;2.50;60.80
75621;DHT22;64574;48.506;-2.750;2023-03-01T07:43:37;2.70;60.80
75621;DHT22;64574;48.506;-2.750;2023-03-01T07:46:03;2.60;60.90
75621;DHT22;64574;48.506;-2.750;2023-03-01T07:48:30;2.50;61.30
75621;DHT22;64574;48.506;-2.750;2023-03-01T07:51:04;2.60;61.40
75621;DHT22;64574;48.506;-2.750;2023-03-01T07:53:30;2.70;61.60
75621;DHT22;64574;48.506;-2.750;2023-03-01T07:58:33;2.80;61.80
75621;DHT22;64574;48.506;-2.750;2023-03-01T08:01:02;2.90;61.80
75621;DHT22;64574;48.506;-2.750;2023-03-01T08:03:28;2.80;62.20
75621;DHT22;64574;48.506;-2.750;2023-03-01T08:05:54;2.80;62.40
75621;DHT22;64574;48.506;-2.750;2023-03-01T08:08:19;2.90;62.50
75621;DHT22;64574;48.506;-2.750;2023-03-01T08:10:45;2.90;62.60
75621;DHT22;64574;48.506;-2.750;2023-03-01T08:13:10;3.00;62.70
75621;DHT22;64574;48.506;-2.750;2023-03-01T08:15:36;3.00;62.80
75621;DHT22;64574;48.506;-2.750;2023-03-01T08:18:02;3.00;63.00
75621;DHT22;64574;48.506;-2.750;2023-03-01T08:20:27;3.10;63.10
75621;DHT22;64574;48.506;-2.750;2023-03-01T08:22:53;3.10;63.20
75621;DHT22;64574;48.506;-2.750;2023-03-01T08:25:18;3.10;63.30
75621;DHT22;64574;48.506;-2.750;2023-03-01T08:27:44;3.10;63.60
75621;DHT22;64574;48.506;-2.750;2023-03-01T08:30:10;3.20;63.60
75621;DHT22;64574;48.506;-2.750;2023-03-01T08:32:39;3.30;63.60
75621;DHT22;64574;48.506;-2.750;2023-03-01T08:35:05;3.30;63.70
75621;DHT22;64574;48.506;-2.750;2023-03-01T08:37:31;3.30;63.50
75621;DHT22;64574;48.506;-2.750;2023-03-01T08:39:59;3.40;63.70
75621;DHT22;64574;48.506;-2.750;2023-03-01T08:42:25;3.40;63.60
75621;DHT22;64574;48.506;-2.750;2023-03-01T08:44:51;3.50;63.60
75621;DHT22;64574;48.506;-2.750;2023-03-01T08:47:16;3.50;63.70
75621;DHT22;64574;48.506;-2.750;2023-03-01T08:49:42;3.50;63.70
75621;DHT22;64574;48.506;-2.750;2023-03-01T08:52:08;3.50;63.70
75621;DHT22;64574;48.506;-2.750;2023-03-01T08:54:33;3.60;63.60
75621;DHT22;64574;48.506;-2.750;2023-03-01T08:57:01;3.60;63.70
75621;DHT22;64574;48.506;-2.750;2023-03-01T08:59:27;3.60;63.80
75621;DHT22;64574;48.506;-2.750;2023-03-01T09:01:54;3.60;64.00
75621;DHT22;64574;48.506;-2.750;2023-03-01T09:04:20;3.70;63.80
75621;DHT22;64574;48.506;-2.750;2023-03-01T09:06:45;3.80;64.00
75621;DHT22;64574;48.506;-2.750;2023-03-01T09:09:16;3.70;63.90
75621;DHT22;64574;48.506;-2.750;2023-03-01T09:11:43;3.90;64.20
75621;DHT22;64574;48.506;-2.750;2023-03-01T09:14:12;4.00;63.80
75621;DHT22;64574;48.506;-2.750;2023-03-01T09:16:37;4.00;63.70
75621;DHT22;64574;48.506;-2.750;2023-03-01T09:19:04;3.90;64.10
75621;DHT22;64574;48.506;-2.750;2023-03-01T09:21:29;4.00;63.60
75621;DHT22;64574;48.506;-2.750;2023-03-01T09:23:57;4.00;63.00
75621;DHT22;64574;48.506;-2.750;2023-03-01T09:26:23;4.00;62.90
75621;DHT22;64574;48.506;-2.750;2023-03-01T09:28:51;4.00;62.60
75621;DHT22;64574;48.506;-2.750;2023-03-01T09:31:18;4.10;62.60
75621;DHT22;64574;48.506;-2.750;2023-03-01T09:33:47;4.00;62.50
75621;DHT22;64574;48.506;-2.750;2023-03-01T09:36:15;4.10;62.80
75621;DHT22;64574;48.506;-2.750;2023-03-01T09:38:42;4.20;61.90
75621;DHT22;64574;48.506;-2.750;2023-03-01T09:44:41;4.10;62.10
75621;DHT22;64574;48.506;-2.750;2023-03-01T09:47:38;4.00;61.80
75621;DHT22;64574;48.506;-2.750;2023-03-01T09:50:34;4.20;62.60
75621;DHT22;64574;48.506;-2.750;2023-03-01T09:53:06;4.20;62.20
75621;DHT22;64574;48.506;-2.750;2023-03-01T09:55:42;4.20;62.00
75621;DHT22;64574;48.506;-2.750;2023-03-01T09:58:27;4.20;61.30
75621;DHT22;64574;48.506;-2.750;2023-03-01T10:00:54;4.20;61.30
75621;DHT22;64574;48.506;-2.750;2023-03-01T10:03:35;4.20;61.90
75621;DHT22;64574;48.506;-2.750;2023-03-01T10:06:21;4.30;62.30
75621;DHT22;64574;48.506;-2.750;2023-03-01T10:11:36;4.50;62.30
75621;DHT22;64574;48.506;-2.750;2023-03-01T10:17:07;4.40;61.50
75621;DHT22;64574;48.506;-2.750;2023-03-01T10:19:39;4.40;61.20
75621;DHT22;64574;48.506;-2.750;2023-03-01T10:22:18;4.50;61.60
75621;DHT22;64574;48.506;-2.750;2023-03-01T10:24:47;4.50;60.80
75621;DHT22;64574;48.506;-2.750;2023-03-01T10:27:24;4.50;61.00
75621;DHT22;64574;48.506;-2.750;2023-03-01T10:32:23;4.50;61.20
75621;DHT22;64574;48.506;-2.750;2023-03-01T10:34:49;4.70;61.60
75621;DHT22;64574;48.506;-2.750;2023-03-01T10:37:19;4.70;62.10
75621;DHT22;64574;48.506;-2.750;2023-03-01T10:42:31;4.80;61.60
75621;DHT22;64574;48.506;-2.750;2023-03-01T10:45:14;4.80;61.90
75621;DHT22;64574;48.506;-2.750;2023-03-01T10:47:40;4.70;62.10
75621;DHT22;64574;48.506;-2.750;2023-03-01T10:50:18;4.60;61.50
75621;DHT22;64574;48.506;-2.750;2023-03-01T10:52:59;4.60;62.30
75621;DHT22;64574;48.506;-2.750;2023-03-01T10:55:37;4.80;62.40
75621;DHT22;64574;48.506;-2.750;2023-03-01T10:58:22;4.80;62.30
75621;DHT22;64574;48.506;-2.750;2023-03-01T11:00:50;4.70;61.50
75621;DHT22;64574;48.506;-2.750;2023-03-01T11:03:31;4.80;62.10
75621;DHT22;64574;48.506;-2.750;2023-03-01T11:13:31;4.70;62.50
75621;DHT22;64574;48.506;-2.750;2023-03-01T11:16:07;4.90;62.90
75621;DHT22;64574;48.506;-2.750;2023-03-01T11:18:35;5.00;62.70
75621;DHT22;64574;48.506;-2.750;2023-03-01T11:21:01;4.90;62.20
75621;DHT22;64574;48.506;-2.750;2023-03-01T11:23:29;4.80;62.20
75621;DHT22;64574;48.506;-2.750;2023-03-01T11:26:01;4.70;62.30
75621;DHT22;64574;48.506;-2.750;2023-03-01T11:28:29;4.70;62.40
75621;DHT22;64574;48.506;-2.750;2023-03-01T11:31:06;5.00;62.70
75621;DHT22;64574;48.506;-2.750;2023-03-01T11:36:22;4.90;62.40
75621;DHT22;64574;48.506;-2.750;2023-03-01T11:38:50;5.00;62.30
75621;DHT22;64574;48.506;-2.750;2023-03-01T11:41:18;5.00;62.00
75621;DHT22;64574;48.506;-2.750;2023-03-01T11:43:53;5.00;61.90
75621;DHT22;64574;48.506;-2.750;2023-03-01T12:08:39;5.30;60.80
75621;DHT22;64574;48.506;-2.750;2023-03-01T12:14:02;5.30;61.30
75621;DHT22;64574;48.506;-2.750;2023-03-01T12:19:44;5.30;61.60
75621;DHT22;64574;48.506;-2.750;2023-03-01T12:22:13;5.50;61.80
75621;DHT22;64574;48.506;-2.750;2023-03-01T12:28:18;5.40;61.60
75621;DHT22;64574;48.506;-2.750;2023-03-01T12:33:19;5.40;61.50
75621;DHT22;64574;48.506;-2.750;2023-03-01T12:36:31;5.50;61.80
75621;DHT22;64574;48.506;-2.750;2023-03-01T12:44:56;5.60;61.80
75621;DHT22;64574;48.506;-2.750;2023-03-01T12:50:20;5.70;61.70
75621;DHT22;64574;48.506;-2.750;2023-03-01T12:52:56;5.70;61.90
75621;DHT22;64574;48.506;-2.750;2023-03-01T12:55:43;5.80;62.00
75621;DHT22;64574;48.506;-2.750;2023-03-01T13:15:28;5.80;62.70
75621;DHT22;64574;48.506;-2.750;2023-03-01T13:21:01;5.80;62.80
75621;DHT22;64574;48.506;-2.750;2023-03-01T13:26:02;6.10;62.60
75621;DHT22;64574;48.506;-2.750;2023-03-01T13:31:05;6.10;62.80
75621;DHT22;64574;48.506;-2.750;2023-03-01T13:36:00;5.80;63.10
75621;DHT22;64574;48.506;-2.750;2023-03-01T13:41:24;6.00;62.60
75621;DHT22;64574;48.506;-2.750;2023-03-01T13:46:59;6.10;62.50
75621;DHT22;64574;48.506;-2.750;2023-03-01T13:52:03;6.30;62.20
75621;DHT22;64574;48.506;-2.750;2023-03-01T13:54:32;6.10;61.50
75621;DHT22;64574;48.506;-2.750;2023-03-01T13:56:59;6.20;61.60
75621;DHT22;64574;48.506;-2.750;2023-03-01T13:59:26;6.20;61.80
75621;DHT22;64574;48.506;-2.750;2023-03-01T14:01:57;6.10;62.00
75621;DHT22;64574;48.506;-2.750;2023-03-01T14:06:51;6.00;62.70
75621;DHT22;64574;48.506;-2.750;2023-03-01T14:09:18;6.00;63.10
75621;DHT22;64574;48.506;-2.750;2023-03-01T14:12:09;6.10;63.00
75621;DHT22;64574;48.506;-2.750;2023-03-01T14:14:45;6.00;62.70
75621;DHT22;64574;48.506;-2.750;2023-03-01T14:19:47;5.90;63.40
75621;DHT22;64574;48.506;-2.750;2023-03-01T14:22:36;5.80;64.00
75621;DHT22;64574;48.506;-2.750;2023-03-01T14:25:06;5.80;64.50
75621;DHT22;64574;48.506;-2.750;2023-03-01T14:27:42;5.80;64.50
75621;DHT22;64574;48.506;-2.750;2023-03-01T14:30:31;5.90;64.50
75621;DHT22;64574;48.506;-2.750;2023-03-01T14:33:19;5.80;64.00
75621;DHT22;64574;48.506;-2.750;2023-03-01T14:38:29;5.90;62.30
75621;DHT22;64574;48.506;-2.750;2023-03-01T14:40:59;5.80;61.60
75621;DHT22;64574;48.506;-2.750;2023-03-01T14:43:28;6.00;61.20
75621;DHT22;64574;48.506;-2.750;2023-03-01T14:45:54;5.90;59.50
75621;DHT22;64574;48.506;-2.750;2023-03-01T14:48:20;6.00;59.60
75621;DHT22;64574;48.506;-2.750;2023-03-01T14:50:47;6.20;59.60
75621;DHT22;64574;48.506;-2.750;2023-03-01T14:53:28;6.10;59.70
75621;DHT22;64574;48.506;-2.750;2023-03-01T14:55:56;6.00;60.00
75621;DHT22;64574;48.506;-2.750;2023-03-01T14:58:26;6.00;59.90
75621;DHT22;64574;48.506;-2.750;2023-03-01T15:01:00;5.90;60.70
75621;DHT22;64574;48.506;-2.750;2023-03-01T15:03:43;6.00;61.10
75621;DHT22;64574;48.506;-2.750;2023-03-01T15:06:10;6.00;62.20
75621;DHT22;64574;48.506;-2.750;2023-03-01T15:08:46;5.80;62.50
75621;DHT22;64574;48.506;-2.750;2023-03-01T15:11:23;5.80;63.00
75621;DHT22;64574;48.506;-2.750;2023-03-01T15:13:50;5.90;63.20
75621;DHT22;64574;48.506;-2.750;2023-03-01T15:18:51;5.80;62.80
75621;DHT22;64574;48.506;-2.750;2023-03-01T15:21:33;5.90;62.10
75621;DHT22;64574;48.506;-2.750;2023-03-01T15:26:45;5.90;61.00
75621;DHT22;64574;48.506;-2.750;2023-03-01T15:29:19;6.00;60.50
75621;DHT22;64574;48.506;-2.750;2023-03-01T15:32:00;6.00;60.00
75621;DHT22;64574;48.506;-2.750;2023-03-01T15:34:31;6.00;60.20
75621;DHT22;64574;48.506;-2.750;2023-03-01T15:36:59;6.00;60.30
75621;DHT22;64574;48.506;-2.750;2023-03-01T15:39:42;5.90;60.30
75621;DHT22;64574;48.506;-2.750;2023-03-01T15:44:38;5.80;61.70
75621;DHT22;64574;48.506;-2.750;2023-03-01T15:47:21;5.80;60.50
75621;DHT22;64574;48.506;-2.750;2023-03-01T15:49:47;5.80;60.80
75621;DHT22;64574;48.506;-2.750;2023-03-01T15:52:39;5.90;61.40
75621;DHT22;64574;48.506;-2.750;2023-03-01T15:55:15;5.90;61.60
75621;DHT22;64574;48.506;-2.750;2023-03-01T15:57:41;5.90;61.90
75621;DHT22;64574;48.506;-2.750;2023-03-01T16:00:10;5.70;61.50
75621;DHT22;64574;48.506;-2.750;2023-03-01T16:02:40;5.80;62.00
75621;DHT22;64574;48.506;-2.750;2023-03-01T16:07:48;5.90;63.50
75621;DHT22;64574;48.506;-2.750;2023-03-01T16:10:14;5.90;64.00
75621;DHT22;64574;48.506;-2.750;2023-03-01T16:12:40;5.90;64.30
75621;DHT22;64574;48.506;-2.750;2023-03-01T16:15:17;5.80;64.30
75621;DHT22;64574;48.506;-2.750;2023-03-01T16:17:43;5.80;64.40
75621;DHT22;64574;48.506;-2.750;2023-03-01T16:20:10;5.80;64.60
75621;DHT22;64574;48.506;-2.750;2023-03-01T16:22:35;5.80;64.20
75621;DHT22;64574;48.506;-2.750;2023-03-01T16:25:01;5.80;63.80
75621;DHT22;64574;48.506;-2.750;2023-03-01T16:27:28;5.80;64.10
75621;DHT22;64574;48.506;-2.750;2023-03-01T16:29:53;5.90;64.10
75621;DHT22;64574;48.506;-2.750;2023-03-01T16:32:19;5.80;64.10
75621;DHT22;64574;48.506;-2.750;2023-03-01T16:34:45;5.80;64.60
75621;DHT22;64574;48.506;-2.750;2023-03-01T16:37:13;5.70;64.00
75621;DHT22;64574;48.506;-2.750;2023-03-01T16:39:38;5.70;63.90
75621;DHT22;64574;48.506;-2.750;2023-03-01T16:42:04;5.80;63.80
75621;DHT22;64574;48.506;-2.750;2023-03-01T16:44:29;5.80;63.40
75621;DHT22;64574;48.506;-2.750;2023-03-01T16:46:55;5.70;63.20
75621;DHT22;64574;48.506;-2.750;2023-03-01T16:49:21;5.60;62.80
75621;DHT22;64574;48.506;-2.750;2023-03-01T16:51:47;5.60;62.90
75621;DHT22;64574;48.506;-2.750;2023-03-01T16:54:12;5.60;63.50
75621;DHT22;64574;48.506;-2.750;2023-03-01T16:56:38;5.60;63.40
75621;DHT22;64574;48.506;-2.750;2023-03-01T16:59:05;5.70;63.20
75621;DHT22;64574;48.506;-2.750;2023-03-01T17:01:31;5.60;61.80
75621;DHT22;64574;48.506;-2.750;2023-03-01T17:04:04;5.50;61.60
75621;DHT22;64574;48.506;-2.750;2023-03-01T17:06:30;5.50;61.90
75621;DHT22;64574;48.506;-2.750;2023-03-01T17:08:58;5.50;61.80
75621;DHT22;64574;48.506;-2.750;2023-03-01T17:11:24;5.50;62.10
75621;DHT22;64574;48.506;-2.750;2023-03-01T17:13:51;5.60;61.80
75621;DHT22;64574;48.506;-2.750;2023-03-01T17:16:18;5.50;61.60
75621;DHT22;64574;48.506;-2.750;2023-03-01T17:18:45;5.60;61.40
75621;DHT22;64574;48.506;-2.750;2023-03-01T17:21:11;5.50;61.70
75621;DHT22;64574;48.506;-2.750;2023-03-01T17:23:38;5.50;62.30
75621;DHT22;64574;48.506;-2.750;2023-03-01T17:26:06;5.50;62.50
75621;DHT22;64574;48.506;-2.750;2023-03-01T17:28:33;5.50;62.20
75621;DHT22;64574;48.506;-2.750;2023-03-01T17:31:01;5.50;62.40
75621;DHT22;64574;48.506;-2.750;2023-03-01T17:33:27;5.50;63.00
75621;DHT22;64574;48.506;-2.750;2023-03-01T17:35:56;5.50;63.20
75621;DHT22;64574;48.506;-2.750;2023-03-01T17:38:22;5.50;62.40
75621;DHT22;64574;48.506;-2.750;2023-03-01T17:40:47;5.50;62.30
75621;DHT22;64574;48.506;-2.750;2023-03-01T17:43:15;5.50;62.60
75621;DHT22;64574;48.506;-2.750;2023-03-01T17:45:41;5.50;62.80
75621;DHT22;64574;48.506;-2.750;2023-03-01T17:48:09;5.50;62.80
75621;DHT22;64574;48.506;-2.750;2023-03-01T17:50:36;5.50;62.80
75621;DHT22;64574;48.506;-2.750;2023-03-01T17:53:03;5.50;62.70
75621;DHT22;64574;48.506;-2.750;2023-03-01T17:55:37;5.50;62.90
75621;DHT22;64574;48.506;-2.750;2023-03-01T17:58:03;5.50;62.90
75621;DHT22;64574;48.506;-2.750;2023-03-01T18:00:29;5.50;63.00